sensor_id;sensor_type;location;lat;lon;timestamp;P1;durP1;ratioP1;P2;durP2;ratioP2
4096;SDS011;2062;50.694;7.246;2024-03-25T00:01:45;9.95;;;2.25;;
4096;SDS011;2062;50.694;7.246;2024-03-25T00:04:10;12.90;;;2.23;;
4096;SDS011;2062;50.694;7.246;2024-03-25T00:06:37;8.88;;;2.20;;
4096;SDS011;2062;50.694;7.246;2024-03-25T00:09:04;11.55;;;2.00;;
4096;SDS011;2062;50.694;7.246;2024-03-25T00:11:38;9.33;;;1.83;;
4096;SDS011;2062;50.694;7.246;2024-03-25T00:14:04;6.97;;;1.80;;
4096;SDS011;2062;50.694;7.246;2024-03-25T00:16:31;7.82;;;2.20;;
4096;SDS011;2062;50.694;7.246;2024-03-25T00:18:57;10.73;;;2.10;;
4096;SDS011;2062;50.694;7.246;2024-03-25T00:21:24;11.10;;;1.97;;
4096;SDS011;2062;50.694;7.246;2024-03-25T00:23:50;11.88;;;2.05;;
4096;SDS011;2062;50.694;7.246;2024-03-25T00:26:18;11.90;;;1.95;;
4096;SDS011;2062;50.694;7.246;2024-03-25T00:28:44;11.18;;;2.42;;
4096;SDS011;2062;50.694;7.246;2024-03-25T00:31:10;8.85;;;2.30;;
4096;SDS011;2062;50.694;7.246;2024-03-25T00:33:36;10.30;;;2.03;;
4096;SDS011;2062;50.694;7.246;2024-03-25T00:36:03;13.95;;;2.33;;
4096;SDS011;2062;50.694;7.246;2024-03-25T00:38:30;14.85;;;2.17;;
4096;SDS011;2062;50.694;7.246;2024-03-25T00:40:56;11.32;;;2.40;;
4096;SDS011;2062;50.694;7.246;2024-03-25T00:43:24;9.33;;;2.30;;
4096;SDS011;2062;50.694;7.246;2024-03-25T00:45:51;13.40;;;2.00;;
4096;SDS011;2062;50.694;7.246;2024-03-25T00:48:16;12.68;;;2.08;;
4096;SDS011;2062;50.694;7.246;2024-03-25T00:50:44;10.48;;;2.00;;
4096;SDS011;2062;50.694;7.246;2024-03-25T00:53:10;11.50;;;1.70;;
4096;SDS011;2062;50.694;7.246;2024-03-25T00:55:38;8.60;;;1.77;;
4096;SDS011;2062;50.694;7.246;2024-03-25T00:58:04;9.02;;;2.00;;
4096;SDS011;2062;50.694;7.246;2024-03-25T01:00:32;12.05;;;2.20;;
4096;SDS011;2062;50.694;7.246;2024-03-25T01:02:58;9.73;;;1.80;;
4096;SDS011;2062;50.694;7.246;2024-03-25T01:05:25;8.52;;;2.03;;
4096;SDS011;2062;50.694;7.246;2024-03-25T01:07:50;8.35;;;2.10;;
4096;SDS011;2062;50.694;7.246;2024-03-25T01:10:17;11.07;;;1.98;;
4096;SDS011;2062;50.694;7.246;2024-03-25T01:12:43;9.97;;;2.13;;
4096;SDS011;2062;50.694;7.246;2024-03-25T01:15:10;11.43;;;1.80;;
4096;SDS011;2062;50.694;7.246;2024-03-25T01:17:38;10.07;;;2.03;;
4096;SDS011;2062;50.694;7.246;2024-03-25T01:20:05;9.60;;;1.85;;
4096;SDS011;2062;50.694;7.246;2024-03-25T01:22:31;13.07;;;2.10;;
4096;SDS011;2062;50.694;7.246;2024-03-25T01:24:58;10.00;;;2.10;;
4096;SDS011;2062;50.694;7.246;2024-03-25T01:27:24;10.20;;;2.45;;
4096;SDS011;2062;50.694;7.246;2024-03-25T01:29:51;8.40;;;1.85;;
4096;SDS011;2062;50.694;7.246;2024-03-25T01:32:17;10.47;;;1.70;;
4096;SDS011;2062;50.694;7.246;2024-03-25T01:34:45;10.57;;;2.40;;
4096;SDS011;2062;50.694;7.246;2024-03-25T01:37:11;14.68;;;2.97;;
4096;SDS011;2062;50.694;7.246;2024-03-25T01:39:38;12.30;;;2.22;;
4096;SDS011;2062;50.694;7.246;2024-03-25T01:42:04;9.70;;;2.33;;
4096;SDS011;2062;50.694;7.246;2024-03-25T01:44:31;14.10;;;2.63;;
4096;SDS011;2062;50.694;7.246;2024-03-25T01:46:56;10.32;;;2.08;;
4096;SDS011;2062;50.694;7.246;2024-03-25T01:49:23;11.63;;;2.20;;
4096;SDS011;2062;50.694;7.246;2024-03-25T01:51:51;12.60;;;2.20;;
4096;SDS011;2062;50.694;7.246;2024-03-25T01:54:18;13.87;;;2.57;;
4096;SDS011;2062;50.694;7.246;2024-03-25T01:56:44;9.52;;;2.15;;
4096;SDS011;2062;50.694;7.246;2024-03-25T01:59:11;12.60;;;2.42;;
4096;SDS011;2062;50.694;7.246;2024-03-25T02:01:38;14.32;;;2.38;;
4096;SDS011;2062;50.694;7.246;2024-03-25T02:04:06;13.18;;;2.28;;
4096;SDS011;2062;50.694;7.246;2024-03-25T02:06:32;11.27;;;2.17;;
4096;SDS011;2062;50.694;7.246;2024-03-25T02:09:03;11.18;;;2.22;;
4096;SDS011;2062;50.694;7.246;2024-03-25T02:11:29;14.15;;;2.17;;
4096;SDS011;2062;50.694;7.246;2024-03-25T02:13:56;7.63;;;1.80;;
4096;SDS011;2062;50.694;7.246;2024-03-25T02:16:22;11.60;;;1.90;;
4096;SDS011;2062;50.694;7.246;2024-03-25T02:18:50;12.02;;;1.98;;
4096;SDS011;2062;50.694;7.246;2024-03-25T02:21:16;9.93;;;2.10;;
4096;SDS011;2062;50.694;7.246;2024-03-25T02:23:43;13.65;;;2.10;;
4096;SDS011;2062;50.694;7.246;2024-03-25T02:26:13;13.05;;;1.98;;
4096;SDS011;2062;50.694;7.246;2024-03-25T02:28:40;13.47;;;1.90;;
4096;SDS011;2062;50.694;7.246;2024-03-25T02:31:06;13.05;;;2.22;;
4096;SDS011;2062;50.694;7.246;2024-03-25T02:33:32;11.23;;;1.92;;
4096;SDS011;2062;50.694;7.246;2024-03-25T02:35:58;8.47;;;2.03;;
4096;SDS011;2062;50.694;7.246;2024-03-25T02:38:25;13.10;;;2.20;;
4096;SDS011;2062;50.694;7.246;2024-03-25T02:40:51;12.15;;;1.90;;
4096;SDS011;2062;50.694;7.246;2024-03-25T02:43:19;9.45;;;2.05;;
4096;SDS011;2062;50.694;7.246;2024-03-25T02:45:46;13.80;;;2.00;;
4096;SDS011;2062;50.694;7.246;2024-03-25T02:48:13;8.25;;;1.80;;
4096;SDS011;2062;50.694;7.246;2024-03-25T02:50:39;10.63;;;2.33;;
4096;SDS011;2062;50.694;7.246;2024-03-25T02:53:06;9.32;;;2.08;;
4096;SDS011;2062;50.694;7.246;2024-03-25T02:55:31;13.90;;;2.27;;
4096;SDS011;2062;50.694;7.246;2024-03-25T02:57:58;15.82;;;1.80;;
4096;SDS011;2062;50.694;7.246;2024-03-25T03:00:25;12.45;;;2.00;;
4096;SDS011;2062;50.694;7.246;2024-03-25T03:02:52;16.27;;;1.90;;
4096;SDS011;2062;50.694;7.246;2024-03-25T03:05:19;10.70;;;1.88;;
4096;SDS011;2062;50.694;7.246;2024-03-25T03:07:45;13.27;;;1.90;;
4096;SDS011;2062;50.694;7.246;2024-03-25T03:10:11;10.77;;;1.90;;
4096;SDS011;2062;50.694;7.246;2024-03-25T03:12:38;13.33;;;2.07;;
4096;SDS011;2062;50.694;7.246;2024-03-25T03:15:04;9.93;;;1.70;;
4096;SDS011;2062;50.694;7.246;2024-03-25T03:17:33;12.23;;;2.08;;
4096;SDS011;2062;50.694;7.246;2024-03-25T03:19:59;11.70;;;1.98;;
4096;SDS011;2062;50.694;7.246;2024-03-25T03:22:26;17.37;;;2.20;;
4096;SDS011;2062;50.694;7.246;2024-03-25T03:24:52;9.98;;;1.85;;
4096;SDS011;2062;50.694;7.246;2024-03-25T03:27:18;10.80;;;2.25;;
4096;SDS011;2062;50.694;7.246;2024-03-25T03:29:44;11.43;;;1.83;;
4096;SDS011;2062;50.694;7.246;2024-03-25T03:32:11;9.23;;;1.77;;
4096;SDS011;2062;50.694;7.246;2024-03-25T03:34:38;10.52;;;2.03;;
4096;SDS011;2062;50.694;7.246;2024-03-25T03:37:05;8.20;;;1.55;;
4096;SDS011;2062;50.694;7.246;2024-03-25T03:39:31;10.03;;;1.90;;
4096;SDS011;2062;50.694;7.246;2024-03-25T03:41:57;11.90;;;1.90;;
4096;SDS011;2062;50.694;7.246;2024-03-25T03:44:23;10.50;;;1.77;;
4096;SDS011;2062;50.694;7.246;2024-03-25T03:46:50;12.02;;;1.95;;
4096;SDS011;2062;50.694;7.246;2024-03-25T03:49:16;14.97;;;1.77;;
4096;SDS011;2062;50.694;7.246;2024-03-25T03:51:44;8.77;;;1.73;;
4096;SDS011;2062;50.694;7.246;2024-03-25T03:54:10;10.43;;;2.10;;
4096;SDS011;2062;50.694;7.246;2024-03-25T03:56:37;9.50;;;2.05;;
4096;SDS011;2062;50.694;7.246;2024-03-25T03:59:02;15.50;;;2.10;;
4096;SDS011;2062;50.694;7.246;2024-03-25T04:01:30;7.22;;;1.67;;
4096;SDS011;2062;50.694;7.246;2024-03-25T04:03:55;12.82;;;1.83;;
4096;SDS011;2062;50.694;7.246;2024-03-25T04:06:22;11.63;;;1.90;;
4096;SDS011;2062;50.694;7.246;2024-03-25T04:08:49;9.83;;;1.33;;
4096;SDS011;2062;50.694;7.246;2024-03-25T04:11:16;9.50;;;1.50;;
4096;SDS011;2062;50.694;7.246;2024-03-25T04:13:42;11.85;;;1.90;;
4096;SDS011;2062;50.694;7.246;2024-03-25T04:16:09;11.97;;;1.60;;
4096;SDS011;2062;50.694;7.246;2024-03-25T04:18:35;10.43;;;1.55;;
4096;SDS011;2062;50.694;7.246;2024-03-25T04:21:02;13.38;;;1.73;;
4096;SDS011;2062;50.694;7.246;2024-03-25T04:23:32;8.35;;;1.70;;
4096;SDS011;2062;50.694;7.246;2024-03-25T04:26:01;10.30;;;1.80;;
4096;SDS011;2062;50.694;7.246;2024-03-25T04:28:27;12.07;;;1.50;;
4096;SDS011;2062;50.694;7.246;2024-03-25T04:30:54;8.40;;;1.73;;
4096;SDS011;2062;50.694;7.246;2024-03-25T04:33:20;9.65;;;1.45;;
4096;SDS011;2062;50.694;7.246;2024-03-25T04:35:47;9.95;;;1.63;;
4096;SDS011;2062;50.694;7.246;2024-03-25T04:38:15;10.67;;;2.33;;
4096;SDS011;2062;50.694;7.246;2024-03-25T04:40:41;13.48;;;1.70;;
4096;SDS011;2062;50.694;7.246;2024-03-25T04:43:09;9.95;;;1.77;;
4096;SDS011;2062;50.694;7.246;2024-03-25T04:45:34;12.23;;;1.83;;
4096;SDS011;2062;50.694;7.246;2024-03-25T04:48:01;10.07;;;1.70;;
4096;SDS011;2062;50.694;7.246;2024-03-25T04:50:27;10.18;;;1.83;;
4096;SDS011;2062;50.694;7.246;2024-03-25T04:52:53;11.98;;;2.13;;
4096;SDS011;2062;50.694;7.246;2024-03-25T04:55:19;11.52;;;1.88;;
4096;SDS011;2062;50.694;7.246;2024-03-25T04:57:45;9.63;;;1.63;;
4096;SDS011;2062;50.694;7.246;2024-03-25T05:00:13;11.40;;;1.85;;
4096;SDS011;2062;50.694;7.246;2024-03-25T05:02:39;13.40;;;2.03;;
4096;SDS011;2062;50.694;7.246;2024-03-25T05:05:05;11.20;;;1.67;;
4096;SDS011;2062;50.694;7.246;2024-03-25T05:07:31;10.88;;;1.65;;
4096;SDS011;2062;50.694;7.246;2024-03-25T05:09:57;12.43;;;2.03;;
4096;SDS011;2062;50.694;7.246;2024-03-25T05:12:23;9.37;;;1.40;;
4096;SDS011;2062;50.694;7.246;2024-03-25T05:14:49;10.88;;;1.60;;
4096;SDS011;2062;50.694;7.246;2024-03-25T05:17:16;13.45;;;1.77;;
4096;SDS011;2062;50.694;7.246;2024-03-25T05:19:42;11.82;;;1.80;;
4096;SDS011;2062;50.694;7.246;2024-03-25T05:22:08;10.47;;;2.00;;
4096;SDS011;2062;50.694;7.246;2024-03-25T05:24:34;15.18;;;2.30;;
4096;SDS011;2062;50.694;7.246;2024-03-25T05:26:59;11.83;;;1.73;;
4096;SDS011;2062;50.694;7.246;2024-03-25T05:29:26;14.90;;;1.93;;
4096;SDS011;2062;50.694;7.246;2024-03-25T05:31:58;12.48;;;1.92;;
4096;SDS011;2062;50.694;7.246;2024-03-25T05:34:26;10.32;;;1.92;;
4096;SDS011;2062;50.694;7.246;2024-03-25T05:36:53;8.30;;;1.42;;
4096;SDS011;2062;50.694;7.246;2024-03-25T05:39:19;10.20;;;1.95;;
4096;SDS011;2062;50.694;7.246;2024-03-25T05:41:45;9.03;;;1.53;;
4096;SDS011;2062;50.694;7.246;2024-03-25T05:44:11;9.88;;;1.60;;
4096;SDS011;2062;50.694;7.246;2024-03-25T05:46:38;12.65;;;1.70;;
4096;SDS011;2062;50.694;7.246;2024-03-25T05:49:04;7.20;;;1.60;;
4096;SDS011;2062;50.694;7.246;2024-03-25T05:51:31;9.73;;;1.60;;
4096;SDS011;2062;50.694;7.246;2024-03-25T05:53:58;15.27;;;2.07;;
4096;SDS011;2062;50.694;7.246;2024-03-25T05:56:24;14.43;;;1.73;;
4096;SDS011;2062;50.694;7.246;2024-03-25T05:58:50;9.20;;;1.75;;
4096;SDS011;2062;50.694;7.246;2024-03-25T06:01:16;5.77;;;1.20;;
4096;SDS011;2062;50.694;7.246;2024-03-25T06:03:42;10.43;;;1.40;;
4096;SDS011;2062;50.694;7.246;2024-03-25T06:06:07;8.73;;;1.48;;
4096;SDS011;2062;50.694;7.246;2024-03-25T06:08:35;11.60;;;1.60;;
4096;SDS011;2062;50.694;7.246;2024-03-25T06:11:01;8.60;;;1.60;;
4096;SDS011;2062;50.694;7.246;2024-03-25T06:13:27;9.43;;;1.52;;
4096;SDS011;2062;50.694;7.246;2024-03-25T06:15:53;11.32;;;1.80;;
4096;SDS011;2062;50.694;7.246;2024-03-25T06:18:19;7.93;;;1.33;;
4096;SDS011;2062;50.694;7.246;2024-03-25T06:20:44;10.03;;;1.50;;
4096;SDS011;2062;50.694;7.246;2024-03-25T06:23:10;7.25;;;1.30;;
4096;SDS011;2062;50.694;7.246;2024-03-25T06:25:48;10.48;;;1.60;;
4096;SDS011;2062;50.694;7.246;2024-03-25T06:28:14;12.73;;;1.50;;
4096;SDS011;2062;50.694;7.246;2024-03-25T06:30:40;6.77;;;1.20;;
4096;SDS011;2062;50.694;7.246;2024-03-25T06:33:24;7.97;;;1.50;;
4096;SDS011;2062;50.694;7.246;2024-03-25T06:36:08;9.25;;;1.45;;
4096;SDS011;2062;50.694;7.246;2024-03-25T06:38:34;10.20;;;1.67;;
4096;SDS011;2062;50.694;7.246;2024-03-25T06:41:01;7.80;;;1.20;;
4096;SDS011;2062;50.694;7.246;2024-03-25T06:43:28;9.10;;;1.40;;
4096;SDS011;2062;50.694;7.246;2024-03-25T06:45:53;10.00;;;1.65;;
4096;SDS011;2062;50.694;7.246;2024-03-25T06:48:19;7.83;;;1.40;;
4096;SDS011;2062;50.694;7.246;2024-03-25T06:50:51;6.43;;;1.20;;
4096;SDS011;2062;50.694;7.246;2024-03-25T06:53:18;10.75;;;1.52;;
4096;SDS011;2062;50.694;7.246;2024-03-25T06:55:50;6.85;;;1.30;;
4096;SDS011;2062;50.694;7.246;2024-03-25T06:58:19;7.67;;;1.43;;
4096;SDS011;2062;50.694;7.246;2024-03-25T07:00:45;8.80;;;1.85;;
4096;SDS011;2062;50.694;7.246;2024-03-25T07:03:11;11.55;;;1.75;;
4096;SDS011;2062;50.694;7.246;2024-03-25T07:05:37;7.60;;;1.83;;
4096;SDS011;2062;50.694;7.246;2024-03-25T07:08:03;11.17;;;1.43;;
4096;SDS011;2062;50.694;7.246;2024-03-25T07:10:29;8.13;;;1.40;;
4096;SDS011;2062;50.694;7.246;2024-03-25T07:12:55;9.70;;;1.75;;
4096;SDS011;2062;50.694;7.246;2024-03-25T07:15:22;9.93;;;1.87;;
4096;SDS011;2062;50.694;7.246;2024-03-25T07:17:48;7.70;;;1.60;;
4096;SDS011;2062;50.694;7.246;2024-03-25T07:20:14;7.78;;;1.38;;
4096;SDS011;2062;50.694;7.246;2024-03-25T07:22:40;7.80;;;1.55;;
4096;SDS011;2062;50.694;7.246;2024-03-25T07:25:06;9.03;;;1.40;;
4096;SDS011;2062;50.694;7.246;2024-03-25T07:27:32;9.07;;;1.73;;
4096;SDS011;2062;50.694;7.246;2024-03-25T07:29:58;8.45;;;1.40;;
4096;SDS011;2062;50.694;7.246;2024-03-25T07:32:25;7.23;;;1.47;;
4096;SDS011;2062;50.694;7.246;2024-03-25T07:34:51;7.53;;;1.40;;
4096;SDS011;2062;50.694;7.246;2024-03-25T07:37:17;5.80;;;1.13;;
4096;SDS011;2062;50.694;7.246;2024-03-25T07:39:45;8.23;;;1.47;;
4096;SDS011;2062;50.694;7.246;2024-03-25T07:42:11;10.63;;;1.63;;
4096;SDS011;2062;50.694;7.246;2024-03-25T07:44:37;9.63;;;1.50;;
4096;SDS011;2062;50.694;7.246;2024-03-25T07:47:03;7.77;;;1.50;;
4096;SDS011;2062;50.694;7.246;2024-03-25T07:49:30;11.85;;;1.55;;
4096;SDS011;2062;50.694;7.246;2024-03-25T07:51:56;9.32;;;1.70;;
4096;SDS011;2062;50.694;7.246;2024-03-25T07:54:22;6.80;;;1.23;;
4096;SDS011;2062;50.694;7.246;2024-03-25T07:56:48;6.93;;;1.57;;
4096;SDS011;2062;50.694;7.246;2024-03-25T07:59:14;7.88;;;1.48;;
4096;SDS011;2062;50.694;7.246;2024-03-25T08:01:40;7.53;;;1.30;;
4096;SDS011;2062;50.694;7.246;2024-03-25T08:04:06;7.23;;;1.50;;
4096;SDS011;2062;50.694;7.246;2024-03-25T08:06:33;10.88;;;1.52;;
4096;SDS011;2062;50.694;7.246;2024-03-25T08:08:59;8.55;;;1.83;;
4096;SDS011;2062;50.694;7.246;2024-03-25T08:11:24;9.77;;;1.47;;
4096;SDS011;2062;50.694;7.246;2024-03-25T08:13:50;7.57;;;1.63;;
4096;SDS011;2062;50.694;7.246;2024-03-25T08:16:16;8.80;;;1.35;;
4096;SDS011;2062;50.694;7.246;2024-03-25T08:18:42;8.17;;;1.57;;
4096;SDS011;2062;50.694;7.246;2024-03-25T08:21:08;9.18;;;1.63;;
4096;SDS011;2062;50.694;7.246;2024-03-25T08:23:35;8.50;;;1.52;;
4096;SDS011;2062;50.694;7.246;2024-03-25T08:26:01;9.57;;;1.60;;
4096;SDS011;2062;50.694;7.246;2024-03-25T08:28:27;10.65;;;1.35;;
4096;SDS011;2062;50.694;7.246;2024-03-25T08:30:53;10.82;;;1.83;;
4096;SDS011;2062;50.694;7.246;2024-03-25T08:33:18;9.83;;;1.97;;
4096;SDS011;2062;50.694;7.246;2024-03-25T08:35:44;9.23;;;1.45;;
4096;SDS011;2062;50.694;7.246;2024-03-25T08:38:10;10.50;;;1.75;;
4096;SDS011;2062;50.694;7.246;2024-03-25T08:40:37;9.03;;;2.10;;
4096;SDS011;2062;50.694;7.246;2024-03-25T08:43:03;12.75;;;2.22;;
4096;SDS011;2062;50.694;7.246;2024-03-25T08:45:29;10.18;;;2.08;;
4096;SDS011;2062;50.694;7.246;2024-03-25T08:47:56;8.32;;;1.70;;
4096;SDS011;2062;50.694;7.246;2024-03-25T08:50:22;9.93;;;1.90;;
4096;SDS011;2062;50.694;7.246;2024-03-25T08:52:48;7.75;;;2.10;;
4096;SDS011;2062;50.694;7.246;2024-03-25T08:55:14;10.45;;;1.90;;
4096;SDS011;2062;50.694;7.246;2024-03-25T08:57:41;11.38;;;2.25;;
4096;SDS011;2062;50.694;7.246;2024-03-25T09:00:08;8.33;;;2.20;;
4096;SDS011;2062;50.694;7.246;2024-03-25T09:02:34;11.38;;;2.10;;
4096;SDS011;2062;50.694;7.246;2024-03-25T09:05:00;10.32;;;1.90;;
4096;SDS011;2062;50.694;7.246;2024-03-25T09:07:26;7.45;;;1.83;;
4096;SDS011;2062;50.694;7.246;2024-03-25T09:09:52;8.20;;;1.57;;
4096;SDS011;2062;50.694;7.246;2024-03-25T09:12:36;10.13;;;2.28;;
4096;SDS011;2062;50.694;7.246;2024-03-25T09:15:04;7.82;;;1.73;;
4096;SDS011;2062;50.694;7.246;2024-03-25T09:17:30;7.65;;;2.08;;
4096;SDS011;2062;50.694;7.246;2024-03-25T09:19:56;10.10;;;1.80;;
4096;SDS011;2062;50.694;7.246;2024-03-25T09:22:22;6.97;;;1.85;;
4096;SDS011;2062;50.694;7.246;2024-03-25T09:24:48;10.05;;;1.90;;
4096;SDS011;2062;50.694;7.246;2024-03-25T09:27:14;11.47;;;1.70;;
4096;SDS011;2062;50.694;7.246;2024-03-25T09:29:40;8.32;;;1.75;;
4096;SDS011;2062;50.694;7.246;2024-03-25T09:32:08;10.35;;;1.75;;
4096;SDS011;2062;50.694;7.246;2024-03-25T09:34:33;6.65;;;1.65;;
4096;SDS011;2062;50.694;7.246;2024-03-25T09:36:59;8.73;;;1.83;;
4096;SDS011;2062;50.694;7.246;2024-03-25T09:39:25;9.53;;;1.90;;
4096;SDS011;2062;50.694;7.246;2024-03-25T09:41:52;9.02;;;2.00;;
4096;SDS011;2062;50.694;7.246;2024-03-25T09:44:21;6.95;;;1.80;;
4096;SDS011;2062;50.694;7.246;2024-03-25T09:46:49;7.72;;;2.00;;
4096;SDS011;2062;50.694;7.246;2024-03-25T09:49:17;7.23;;;1.90;;
4096;SDS011;2062;50.694;7.246;2024-03-25T09:51:44;8.63;;;1.60;;
4096;SDS011;2062;50.694;7.246;2024-03-25T09:54:10;9.85;;;1.95;;
4096;SDS011;2062;50.694;7.246;2024-03-25T09:56:36;7.13;;;1.53;;
4096;SDS011;2062;50.694;7.246;2024-03-25T09:59:04;5.10;;;1.50;;
4096;SDS011;2062;50.694;7.246;2024-03-25T10:01:30;11.13;;;2.10;;
4096;SDS011;2062;50.694;7.246;2024-03-25T10:03:56;6.72;;;1.60;;
4096;SDS011;2062;50.694;7.246;2024-03-25T10:06:23;5.05;;;1.35;;
4096;SDS011;2062;50.694;7.246;2024-03-25T10:08:52;6.43;;;1.20;;
4096;SDS011;2062;50.694;7.246;2024-03-25T10:11:19;8.02;;;1.70;;
4096;SDS011;2062;50.694;7.246;2024-03-25T10:13:45;8.15;;;1.70;;
4096;SDS011;2062;50.694;7.246;2024-03-25T10:16:11;7.13;;;1.65;;
4096;SDS011;2062;50.694;7.246;2024-03-25T10:18:36;10.20;;;1.70;;
4096;SDS011;2062;50.694;7.246;2024-03-25T10:21:02;7.75;;;1.45;;
4096;SDS011;2062;50.694;7.246;2024-03-25T10:23:30;8.23;;;1.60;;
4096;SDS011;2062;50.694;7.246;2024-03-25T10:25:56;5.63;;;1.40;;
4096;SDS011;2062;50.694;7.246;2024-03-25T10:28:22;7.37;;;1.40;;
4096;SDS011;2062;50.694;7.246;2024-03-25T10:30:48;6.82;;;1.48;;
4096;SDS011;2062;50.694;7.246;2024-03-25T10:33:14;8.13;;;1.25;;
4096;SDS011;2062;50.694;7.246;2024-03-25T10:35:40;6.47;;;1.20;;
4096;SDS011;2062;50.694;7.246;2024-03-25T10:38:09;6.32;;;1.50;;
4096;SDS011;2062;50.694;7.246;2024-03-25T10:40:38;7.65;;;1.40;;
4096;SDS011;2062;50.694;7.246;2024-03-25T10:43:05;6.82;;;1.00;;
4096;SDS011;2062;50.694;7.246;2024-03-25T10:45:33;6.10;;;1.07;;
4096;SDS011;2062;50.694;7.246;2024-03-25T10:48:02;5.05;;;1.02;;
4096;SDS011;2062;50.694;7.246;2024-03-25T10:50:32;5.15;;;1.40;;
4096;SDS011;2062;50.694;7.246;2024-03-25T10:53:00;5.07;;;1.33;;
4096;SDS011;2062;50.694;7.246;2024-03-25T10:55:29;6.00;;;1.08;;
4096;SDS011;2062;50.694;7.246;2024-03-25T10:57:58;6.67;;;1.20;;
4096;SDS011;2062;50.694;7.246;2024-03-25T11:00:26;6.45;;;1.15;;
4096;SDS011;2062;50.694;7.246;2024-03-25T11:02:52;4.38;;;1.10;;
4096;SDS011;2062;50.694;7.246;2024-03-25T11:05:18;6.50;;;1.10;;
4096;SDS011;2062;50.694;7.246;2024-03-25T11:07:45;4.90;;;1.10;;
4096;SDS011;2062;50.694;7.246;2024-03-25T11:10:11;4.93;;;1.10;;
4096;SDS011;2062;50.694;7.246;2024-03-25T11:12:38;5.30;;;1.20;;
4096;SDS011;2062;50.694;7.246;2024-03-25T11:15:08;4.60;;;1.20;;
4096;SDS011;2062;50.694;7.246;2024-03-25T11:17:34;7.28;;;1.30;;
4096;SDS011;2062;50.694;7.246;2024-03-25T11:20:09;6.25;;;1.42;;
4096;SDS011;2062;50.694;7.246;2024-03-25T11:22:36;6.23;;;1.17;;
4096;SDS011;2062;50.694;7.246;2024-03-25T11:25:13;4.18;;;1.10;;
4096;SDS011;2062;50.694;7.246;2024-03-25T11:27:39;7.10;;;1.27;;
4096;SDS011;2062;50.694;7.246;2024-03-25T11:30:09;5.85;;;1.30;;
4096;SDS011;2062;50.694;7.246;2024-03-25T11:32:43;4.72;;;1.27;;
4096;SDS011;2062;50.694;7.246;2024-03-25T11:35:09;7.27;;;1.50;;
4096;SDS011;2062;50.694;7.246;2024-03-25T11:37:39;5.65;;;1.70;;
4096;SDS011;2062;50.694;7.246;2024-03-25T11:40:05;6.00;;;1.42;;
4096;SDS011;2062;50.694;7.246;2024-03-25T11:42:32;7.20;;;1.25;;
4096;SDS011;2062;50.694;7.246;2024-03-25T11:44:59;10.57;;;1.60;;
4096;SDS011;2062;50.694;7.246;2024-03-25T11:47:27;5.63;;;1.30;;
4096;SDS011;2062;50.694;7.246;2024-03-25T11:49:53;3.97;;;1.25;;
4096;SDS011;2062;50.694;7.246;2024-03-25T11:52:19;6.25;;;1.33;;
4096;SDS011;2062;50.694;7.246;2024-03-25T11:54:44;5.83;;;1.50;;
4096;SDS011;2062;50.694;7.246;2024-03-25T11:57:18;4.45;;;1.17;;
4096;SDS011;2062;50.694;7.246;2024-03-25T11:59:44;4.38;;;1.00;;
4096;SDS011;2062;50.694;7.246;2024-03-25T12:02:10;5.40;;;1.33;;
4096;SDS011;2062;50.694;7.246;2024-03-25T12:04:41;4.83;;;1.10;;
4096;SDS011;2062;50.694;7.246;2024-03-25T12:07:07;5.57;;;1.38;;
4096;SDS011;2062;50.694;7.246;2024-03-25T12:09:35;5.43;;;1.20;;
4096;SDS011;2062;50.694;7.246;2024-03-25T12:12:19;5.80;;;1.00;;
4096;SDS011;2062;50.694;7.246;2024-03-25T12:14:45;5.95;;;1.50;;
4096;SDS011;2062;50.694;7.246;2024-03-25T12:17:11;5.97;;;1.20;;
4096;SDS011;2062;50.694;7.246;2024-03-25T12:19:38;5.63;;;1.10;;
4096;SDS011;2062;50.694;7.246;2024-03-25T12:22:05;5.82;;;1.27;;
4096;SDS011;2062;50.694;7.246;2024-03-25T12:24:31;5.93;;;1.58;;
4096;SDS011;2062;50.694;7.246;2024-03-25T12:26:57;7.53;;;1.47;;
4096;SDS011;2062;50.694;7.246;2024-03-25T12:29:23;7.25;;;1.50;;
4096;SDS011;2062;50.694;7.246;2024-03-25T12:31:55;4.28;;;1.17;;
4096;SDS011;2062;50.694;7.246;2024-03-25T12:34:21;5.90;;;1.30;;
4096;SDS011;2062;50.694;7.246;2024-03-25T12:36:49;6.68;;;1.30;;
4096;SDS011;2062;50.694;7.246;2024-03-25T12:39:15;3.90;;;1.07;;
4096;SDS011;2062;50.694;7.246;2024-03-25T12:41:42;4.65;;;1.23;;
4096;SDS011;2062;50.694;7.246;2024-03-25T12:44:08;6.97;;;1.52;;
4096;SDS011;2062;50.694;7.246;2024-03-25T12:46:37;7.15;;;1.48;;
4096;SDS011;2062;50.694;7.246;2024-03-25T12:49:03;6.43;;;1.10;;
4096;SDS011;2062;50.694;7.246;2024-03-25T12:51:29;4.85;;;1.30;;
4096;SDS011;2062;50.694;7.246;2024-03-25T12:53:56;6.35;;;1.45;;
4096;SDS011;2062;50.694;7.246;2024-03-25T12:56:22;5.57;;;1.55;;
4096;SDS011;2062;50.694;7.246;2024-03-25T12:58:48;4.67;;;1.37;;
4096;SDS011;2062;50.694;7.246;2024-03-25T13:01:14;5.60;;;1.50;;
4096;SDS011;2062;50.694;7.246;2024-03-25T13:03:40;4.10;;;1.20;;
4096;SDS011;2062;50.694;7.246;2024-03-25T13:06:06;5.10;;;1.30;;
4096;SDS011;2062;50.694;7.246;2024-03-25T13:08:32;4.22;;;1.10;;
4096;SDS011;2062;50.694;7.246;2024-03-25T13:10:59;6.40;;;1.15;;
4096;SDS011;2062;50.694;7.246;2024-03-25T13:13:25;6.72;;;1.30;;
4096;SDS011;2062;50.694;7.246;2024-03-25T13:15:51;4.07;;;1.10;;
4096;SDS011;2062;50.694;7.246;2024-03-25T13:18:17;4.65;;;1.20;;
4096;SDS011;2062;50.694;7.246;2024-03-25T13:20:43;5.38;;;1.00;;
4096;SDS011;2062;50.694;7.246;2024-03-25T13:23:09;6.10;;;1.20;;
4096;SDS011;2062;50.694;7.246;2024-03-25T13:25:35;5.40;;;1.50;;
4096;SDS011;2062;50.694;7.246;2024-03-25T13:28:02;5.20;;;1.10;;
4096;SDS011;2062;50.694;7.246;2024-03-25T13:30:28;4.50;;;1.10;;
4096;SDS011;2062;50.694;7.246;2024-03-25T13:32:56;5.07;;;1.00;;
4096;SDS011;2062;50.694;7.246;2024-03-25T13:35:22;8.23;;;1.50;;
4096;SDS011;2062;50.694;7.246;2024-03-25T13:37:48;8.20;;;1.20;;
4096;SDS011;2062;50.694;7.246;2024-03-25T13:40:14;6.50;;;1.50;;
4096;SDS011;2062;50.694;7.246;2024-03-25T13:42:40;5.85;;;1.23;;
4096;SDS011;2062;50.694;7.246;2024-03-25T13:45:08;5.68;;;1.35;;
4096;SDS011;2062;50.694;7.246;2024-03-25T13:47:34;5.72;;;1.38;;
4096;SDS011;2062;50.694;7.246;2024-03-25T13:50:00;7.47;;;1.60;;
4096;SDS011;2062;50.694;7.246;2024-03-25T13:52:26;5.68;;;1.40;;
4096;SDS011;2062;50.694;7.246;2024-03-25T13:54:52;4.63;;;1.20;;
4096;SDS011;2062;50.694;7.246;2024-03-25T13:57:18;4.47;;;1.00;;
4096;SDS011;2062;50.694;7.246;2024-03-25T13:59:44;4.57;;;1.10;;
4096;SDS011;2062;50.694;7.246;2024-03-25T14:02:11;6.43;;;1.30;;
4096;SDS011;2062;50.694;7.246;2024-03-25T14:04:37;5.90;;;1.10;;
4096;SDS011;2062;50.694;7.246;2024-03-25T14:07:03;5.25;;;1.40;;
4096;SDS011;2062;50.694;7.246;2024-03-25T14:09:29;7.75;;;1.20;;
4096;SDS011;2062;50.694;7.246;2024-03-25T14:11:55;6.03;;;1.37;;
4096;SDS011;2062;50.694;7.246;2024-03-25T14:14:21;6.30;;;1.10;;
4096;SDS011;2062;50.694;7.246;2024-03-25T14:16:47;5.22;;;1.25;;
4096;SDS011;2062;50.694;7.246;2024-03-25T14:19:14;4.63;;;1.20;;
4096;SDS011;2062;50.694;7.246;2024-03-25T14:21:40;5.37;;;1.30;;
4096;SDS011;2062;50.694;7.246;2024-03-25T14:24:06;4.97;;;1.30;;
4096;SDS011;2062;50.694;7.246;2024-03-25T14:26:32;7.47;;;1.50;;
4096;SDS011;2062;50.694;7.246;2024-03-25T14:28:58;5.68;;;1.15;;
4096;SDS011;2062;50.694;7.246;2024-03-25T14:31:24;6.07;;;1.52;;
4096;SDS011;2062;50.694;7.246;2024-03-25T14:33:50;6.80;;;1.47;;
4096;SDS011;2062;50.694;7.246;2024-03-25T14:36:18;4.25;;;1.20;;
4096;SDS011;2062;50.694;7.246;2024-03-25T14:38:43;4.95;;;1.30;;
4096;SDS011;2062;50.694;7.246;2024-03-25T14:41:11;4.57;;;1.27;;
4096;SDS011;2062;50.694;7.246;2024-03-25T14:43:37;5.10;;;1.30;;
4096;SDS011;2062;50.694;7.246;2024-03-25T14:46:03;5.80;;;1.40;;
4096;SDS011;2062;50.694;7.246;2024-03-25T14:48:29;4.38;;;1.23;;
4096;SDS011;2062;50.694;7.246;2024-03-25T14:50:55;4.40;;;1.13;;
4096;SDS011;2062;50.694;7.246;2024-03-25T14:53:22;4.15;;;1.38;;
4096;SDS011;2062;50.694;7.246;2024-03-25T14:55:48;4.72;;;1.15;;
4096;SDS011;2062;50.694;7.246;2024-03-25T14:58:14;4.77;;;1.20;;
4096;SDS011;2062;50.694;7.246;2024-03-25T15:00:40;6.27;;;1.23;;
4096;SDS011;2062;50.694;7.246;2024-03-25T15:03:06;5.20;;;1.48;;
4096;SDS011;2062;50.694;7.246;2024-03-25T15:05:31;6.33;;;1.43;;
4096;SDS011;2062;50.694;7.246;2024-03-25T15:07:57;5.43;;;1.30;;